sensor_id;sensor_type;location;lat;lon;timestamp;temperature;humidity
2653;DHT22;1336;48.692;9.144;2023-04-25T05:00:13;9.70;97.20
2653;DHT22;1336;48.692;9.144;2023-04-25T05:01:06;9.80;97.20
2653;DHT22;1336;48.692;9.144;2023-04-25T05:01:57;9.80;97.20
2653;DHT22;1336;48.692;9.144;2023-04-25T05:02:49;9.80;97.20
2653;DHT22;1336;48.692;9.144;2023-04-25T05:03:39;9.80;97.20
2653;DHT22;1336;48.692;9.144;2023-04-25T05:04:31;9.80;97.20
2653;DHT22;1336;48.692;9.144;2023-04-25T05:05:22;9.80;97.20
2653;DHT22;1336;48.692;9.144;2023-04-25T05:06:14;9.80;97.20
2653;DHT22;1336;48.692;9.144;2023-04-25T05:07:04;9.90;97.20
2653;DHT22;1336;48.692;9.144;2023-04-25T05:07:56;9.90;97.20
2653;DHT22;1336;48.692;9.144;2023-04-25T05:08:47;9.90;97.20
2653;DHT22;1336;48.692;9.144;2023-04-25T05:09:39;9.90;97.20
2653;DHT22;1336;48.692;9.144;2023-04-25T05:10:30;9.90;97.20
2653;DHT22;1336;48.692;9.144;2023-04-25T05:11:22;10.00;97.20
2653;DHT22;1336;48.692;9.144;2023-04-25T05:12:13;10.00;97.20
2653;DHT22;1336;48.692;9.144;2023-04-25T05:13:05;10.00;97.20
2653;DHT22;1336;48.692;9.144;2023-04-25T05:13:55;10.00;97.20
2653;DHT22;1336;48.692;9.144;2023-04-25T05:14:47;10.00;97.20
2653;DHT22;1336;48.692;9.144;2023-04-25T05:15:39;10.10;97.20
2653;DHT22;1336;48.692;9.144;2023-04-25T05:16:31;10.10;97.20
2653;DHT22;1336;48.692;9.144;2023-04-25T05:17:22;10.10;97.20
2653;DHT22;1336;48.692;9.144;2023-04-25T05:18:13;10.10;97.20
2653;DHT22;1336;48.692;9.144;2023-04-25T05:19:04;10.10;97.20
2653;DHT22;1336;48.692;9.144;2023-04-25T05:19:56;10.10;97.20
2653;DHT22;1336;48.692;9.144;2023-04-25T05:20:47;10.10;97.20
2653;DHT22;1336;48.692;9.144;2023-04-25T05:21:38;10.20;97.20
2653;DHT22;1336;48.692;9.144;2023-04-25T05:22:29;10.10;97.20
2653;DHT22;1336;48.692;9.144;2023-04-25T05:23:21;10.10;97.20
2653;DHT22;1336;48.692;9.144;2023-04-25T05:24:11;10.10;97.20
2653;DHT22;1336;48.692;9.144;2023-04-25T05:25:04;10.10;97.20
2653;DHT22;1336;48.692;9.144;2023-04-25T05:25:55;10.10;97.20
2653;DHT22;1336;48.692;9.144;2023-04-25T05:26:46;10.10;97.20
2653;DHT22;1336;48.692;9.144;2023-04-25T05:27:37;10.10;97.20
2653;DHT22;1336;48.692;9.144;2023-04-25T05:28:29;10.10;97.20
2653;DHT22;1336;48.692;9.144;2023-04-25T05:29:20;10.10;97.20
2653;DHT22;1336;48.692;9.144;2023-04-25T05:30:11;10.10;97.20
2653;DHT22;1336;48.692;9.144;2023-04-25T05:31:04;10.00;97.20
2653;DHT22;1336;48.692;9.144;2023-04-25T05:31:55;10.00;97.20
2653;DHT22;1336;48.692;9.144;2023-04-25T05:32:46;10.00;97.20
2653;DHT22;1336;48.692;9.144;2023-04-25T05:33:38;10.10;97.20
2653;DHT22;1336;48.692;9.144;2023-04-25T05:34:29;10.10;97.20
2653;DHT22;1336;48.692;9.144;2023-04-25T05:35:20;10.10;97.20
2653;DHT22;1336;48.692;9.144;2023-04-25T05:36:11;10.10;97.20
2653;DHT22;1336;48.692;9.144;2023-04-25T05:37:03;10.10;97.20
2653;DHT22;1336;48.692;9.144;2023-04-25T05:37:54;10.10;97.20
2653;DHT22;1336;48.692;9.144;2023-04-25T05:38:45;10.10;97.20
2653;DHT22;1336;48.692;9.144;2023-04-25T05:39:36;10.10;97.20
2653;DHT22;1336;48.692;9.144;2023-04-25T05:40:28;10.10;97.20
2653;DHT22;1336;48.692;9.144;2023-04-25T05:41:19;10.10;97.20
2653;DHT22;1336;48.692;9.144;2023-04-25T05:42:10;10.10;97.20
2653;DHT22;1336;48.692;9.144;2023-04-25T05:43:01;10.10;97.20
2653;DHT22;1336;48.692;9.144;2023-04-25T05:43:53;10.10;97.20
2653;DHT22;1336;48.692;9.144;2023-04-25T05:44:44;10.20;97.20
2653;DHT22;1336;48.692;9.144;2023-04-25T05:45:36;10.20;97.20
2653;DHT22;1336;48.692;9.144;2023-04-25T05:46:28;10.20;97.20
2653;DHT22;1336;48.692;9.144;2023-04-25T05:47:19;10.20;97.20
2653;DHT22;1336;48.692;9.144;2023-04-25T05:48:10;10.20;97.20
2653;DHT22;1336;48.692;9.144;2023-04-25T05:49:02;10.20;97.20
2653;DHT22;1336;48.692;9.144;2023-04-25T05:49:53;10.20;97.20
2653;DHT22;1336;48.692;9.144;2023-04-25T05:50:44;10.20;97.20
2653;DHT22;1336;48.692;9.144;2023-04-25T05:51:35;10.20;97.20
2653;DHT22;1336;48.692;9.144;2023-04-25T05:52:27;10.20;97.20
2653;DHT22;1336;48.692;9.144;2023-04-25T05:53:18;10.20;97.20
2653;DHT22;1336;48.692;9.144;2023-04-25T05:54:09;10.20;97.20
2653;DHT22;1336;48.692;9.144;2023-04-25T05:55:00;10.20;97.20
2653;DHT22;1336;48.692;9.144;2023-04-25T05:55:52;10.30;97.20
2653;DHT22;1336;48.692;9.144;2023-04-25T05:56:43;10.30;97.20
2653;DHT22;1336;48.692;9.144;2023-04-25T05:57:34;10.30;97.20
2653;DHT22;1336;48.692;9.144;2023-04-25T05:58:25;10.30;97.20
2653;DHT22;1336;48.692;9.144;2023-04-25T05:59:17;10.30;97.20
2653;DHT22;1336;48.692;9.144;2023-04-25T06:00:09;10.30;97.20
2653;DHT22;1336;48.692;9.144;2023-04-25T06:01:01;10.30;97.20
2653;DHT22;1336;48.692;9.144;2023-04-25T06:01:54;10.30;97.20
2653;DHT22;1336;48.692;9.144;2023-04-25T06:02:46;10.30;97.20
2653;DHT22;1336;48.692;9.144;2023-04-25T06:03:36;10.30;97.20
2653;DHT22;1336;48.692;9.144;2023-04-25T06:04:28;10.30;97.20
2653;DHT22;1336;48.692;9.144;2023-04-25T06:05:20;10.40;97.20
2653;DHT22;1336;48.692;9.144;2023-04-25T06:06:12;10.40;97.20
2653;DHT22;1336;48.692;9.144;2023-04-25T06:07:02;10.40;97.20
2653;DHT22;1336;48.692;9.144;2023-04-25T06:07:54;10.40;97.20
2653;DHT22;1336;48.692;9.144;2023-04-25T06:08:45;10.40;97.20
2653;DHT22;1336;48.692;9.144;2023-04-25T06:09:37;10.50;97.20
2653;DHT22;1336;48.692;9.144;2023-04-25T06:10:29;10.50;97.20
2653;DHT22;1336;48.692;9.144;2023-04-25T06:11:21;10.60;97.20
2653;DHT22;1336;48.692;9.144;2023-04-25T06:12:11;10.70;97.20
2653;DHT22;1336;48.692;9.144;2023-04-25T06:13:04;10.80;97.20
2653;DHT22;1336;48.692;9.144;2023-04-25T06:13:55;10.80;97.20
2653;DHT22;1336;48.692;9.144;2023-04-25T06:14:47;10.90;97.20
2653;DHT22;1336;48.692;9.144;2023-04-25T06:15:38;11.00;97.20
2653;DHT22;1336;48.692;9.144;2023-04-25T06:16:29;11.10;97.20
2653;DHT22;1336;48.692;9.144;2023-04-25T06:17:21;11.20;97.20
2653;DHT22;1336;48.692;9.144;2023-04-25T06:18:13;11.20;97.20
2653;DHT22;1336;48.692;9.144;2023-04-25T06:19:04;11.30;97.20
2653;DHT22;1336;48.692;9.144;2023-04-25T06:19:55;11.40;97.20
2653;DHT22;1336;48.692;9.144;2023-04-25T06:20:46;11.50;97.20
2653;DHT22;1336;48.692;9.144;2023-04-25T06:21:38;11.50;97.20
2653;DHT22;1336;48.692;9.144;2023-04-25T06:22:28;11.50;97.20
2653;DHT22;1336;48.692;9.144;2023-04-25T06:23:20;11.60;97.20
2653;DHT22;1336;48.692;9.144;2023-04-25T06:24:11;11.60;97.20
2653;DHT22;1336;48.692;9.144;2023-04-25T06:25:03;11.70;97.20
2653;DHT22;1336;48.692;9.144;2023-04-25T06:25:54;11.70;97.20
2653;DHT22;1336;48.692;9.144;2023-04-25T06:26:46;11.70;97.20
2653;DHT22;1336;48.692;9.144;2023-04-25T06:27:38;11.70;97.20
2653;DHT22;1336;48.692;9.144;2023-04-25T06:28:29;11.70;97.20
2653;DHT22;1336;48.692;9.144;2023-04-25T06:29:20;11.70;97.20
2653;DHT22;1336;48.692;9.144;2023-04-25T06:30:12;11.70;97.20
2653;DHT22;1336;48.692;9.144;2023-04-25T06:31:03;11.70;97.20
2653;DHT22;1336;48.692;9.144;2023-04-25T06:31:55;11.70;97.20
2653;DHT22;1336;48.692;9.144;2023-04-25T06:32:47;11.70;97.20
2653;DHT22;1336;48.692;9.144;2023-04-25T06:33:38;11.60;97.20
2653;DHT22;1336;48.692;9.144;2023-04-25T06:34:29;11.60;97.20
2653;DHT22;1336;48.692;9.144;2023-04-25T06:35:21;11.60;97.20
2653;DHT22;1336;48.692;9.144;2023-04-25T06:36:12;11.60;97.20
2653;DHT22;1336;48.692;9.144;2023-04-25T06:37:03;11.60;97.20
2653;DHT22;1336;48.692;9.144;2023-04-25T06:37:54;11.60;97.20
2653;DHT22;1336;48.692;9.144;2023-04-25T06:38:46;11.50;97.20
2653;DHT22;1336;48.692;9.144;2023-04-25T06:39:37;11.50;97.20
2653;DHT22;1336;48.692;9.144;2023-04-25T06:40:28;11.50;97.20
2653;DHT22;1336;48.692;9.144;2023-04-25T06:41:19;11.40;97.20
2653;DHT22;1336;48.692;9.144;2023-04-25T06:42:11;11.40;97.20
2653;DHT22;1336;48.692;9.144;2023-04-25T06:43:02;11.40;97.20
2653;DHT22;1336;48.692;9.144;2023-04-25T06:43:53;11.30;97.20
2653;DHT22;1336;48.692;9.144;2023-04-25T06:44:44;11.30;97.20
2653;DHT22;1336;48.692;9.144;2023-04-25T06:45:36;11.30;97.20
2653;DHT22;1336;48.692;9.144;2023-04-25T06:46:27;11.20;97.20
2653;DHT22;1336;48.692;9.144;2023-04-25T06:47:18;11.20;97.20
2653;DHT22;1336;48.692;9.144;2023-04-25T06:48:10;11.20;97.20
2653;DHT22;1336;48.692;9.144;2023-04-25T06:49:02;11.20;97.20
2653;DHT22;1336;48.692;9.144;2023-04-25T06:49:53;11.20;97.20
2653;DHT22;1336;48.692;9.144;2023-04-25T06:50:44;11.20;97.20
2653;DHT22;1336;48.692;9.144;2023-04-25T06:51:35;11.10;97.20
2653;DHT22;1336;48.692;9.144;2023-04-25T06:52:27;11.10;97.20
2653;DHT22;1336;48.692;9.144;2023-04-25T06:53:21;11.10;97.20
2653;DHT22;1336;48.692;9.144;2023-04-25T06:54:13;11.10;97.20
2653;DHT22;1336;48.692;9.144;2023-04-25T06:55:04;11.10;97.20
2653;DHT22;1336;48.692;9.144;2023-04-25T06:55:56;11.10;97.20
2653;DHT22;1336;48.692;9.144;2023-04-25T06:56:47;11.10;97.20
2653;DHT22;1336;48.692;9.144;2023-04-25T06:57:38;11.10;97.20
2653;DHT22;1336;48.692;9.144;2023-04-25T06:58:29;11.10;97.20
2653;DHT22;1336;48.692;9.144;2023-04-25T06:59:21;11.10;97.20
2653;DHT22;1336;48.692;9.144;2023-04-25T07:00:13;11.00;97.20
2653;DHT22;1336;48.692;9.144;2023-04-25T07:01:05;11.00;97.20
2653;DHT22;1336;48.692;9.144;2023-04-25T07:01:55;11.00;97.20
2653;DHT22;1336;48.692;9.144;2023-04-25T07:02:47;11.00;97.20
2653;DHT22;1336;48.692;9.144;2023-04-25T07:03:39;11.00;97.20
2653;DHT22;1336;48.692;9.144;2023-04-25T07:04:31;11.00;97.20
2653;DHT22;1336;48.692;9.144;2023-04-25T07:05:22;11.00;97.20
2653;DHT22;1336;48.692;9.144;2023-04-25T07:06:13;10.90;97.20
2653;DHT22;1336;48.692;9.144;2023-04-25T07:07:04;10.90;97.20
2653;DHT22;1336;48.692;9.144;2023-04-25T07:07:56;10.90;97.20
2653;DHT22;1336;48.692;9.144;2023-04-25T07:08:46;10.90;97.20
2653;DHT22;1336;48.692;9.144;2023-04-25T07:09:38;10.90;97.20
2653;DHT22;1336;48.692;9.144;2023-04-25T07:10:29;10.90;97.20
2653;DHT22;1336;48.692;9.144;2023-04-25T07:11:21;10.90;97.20
2653;DHT22;1336;48.692;9.144;2023-04-25T07:12:11;10.90;97.20
2653;DHT22;1336;48.692;9.144;2023-04-25T07:13:03;10.80;97.20
2653;DHT22;1336;48.692;9.144;2023-04-25T07:13:55;10.80;97.20
2653;DHT22;1336;48.692;9.144;2023-04-25T07:14:46;10.80;97.20
2653;DHT22;1336;48.692;9.144;2023-04-25T07:15:37;10.80;97.20
2653;DHT22;1336;48.692;9.144;2023-04-25T07:16:28;10.80;97.20
2653;DHT22;1336;48.692;9.144;2023-04-25T07:17:20;10.80;97.20
2653;DHT22;1336;48.692;9.144;2023-04-25T07:18:10;10.80;97.20
2653;DHT22;1336;48.692;9.144;2023-04-25T07:19:04;10.80;97.20
2653;DHT22;1336;48.692;9.144;2023-04-25T07:19:54;10.80;97.20
2653;DHT22;1336;48.692;9.144;2023-04-25T07:20:46;10.80;97.20
2653;DHT22;1336;48.692;9.144;2023-04-25T07:21:37;10.80;97.20
2653;DHT22;1336;48.692;9.144;2023-04-25T07:22:28;10.90;97.20
2653;DHT22;1336;48.692;9.144;2023-04-25T07:23:19;10.90;97.20
2653;DHT22;1336;48.692;9.144;2023-04-25T07:24:11;10.90;97.20
2653;DHT22;1336;48.692;9.144;2023-04-25T07:25:02;10.90;97.20
2653;DHT22;1336;48.692;9.144;2023-04-25T07:25:54;10.90;97.20
2653;DHT22;1336;48.692;9.144;2023-04-25T07:26:46;10.90;97.20
2653;DHT22;1336;48.692;9.144;2023-04-25T07:27:38;10.90;97.20
2653;DHT22;1336;48.692;9.144;2023-04-25T07:28:29;10.90;97.20
2653;DHT22;1336;48.692;9.144;2023-04-25T07:29:21;10.90;97.20
2653;DHT22;1336;48.692;9.144;2023-04-25T07:30:12;10.90;97.20
2653;DHT22;1336;48.692;9.144;2023-04-25T07:31:04;10.90;97.20
2653;DHT22;1336;48.692;9.144;2023-04-25T07:31:55;11.00;97.20
2653;DHT22;1336;48.692;9.144;2023-04-25T07:32:47;11.00;97.20
2653;DHT22;1336;48.692;9.144;2023-04-25T07:33:38;11.00;97.20
2653;DHT22;1336;48.692;9.144;2023-04-25T07:34:31;11.00;97.20
2653;DHT22;1336;48.692;9.144;2023-04-25T07:35:22;11.00;97.20
2653;DHT22;1336;48.692;9.144;2023-04-25T07:36:14;11.00;97.20
2653;DHT22;1336;48.692;9.144;2023-04-25T07:37:05;11.10;97.20
2653;DHT22;1336;48.692;9.144;2023-04-25T07:37:57;11.10;97.20
2653;DHT22;1336;48.692;9.144;2023-04-25T07:38:49;11.10;97.20
2653;DHT22;1336;48.692;9.144;2023-04-25T07:39:41;11.10;97.20
2653;DHT22;1336;48.692;9.144;2023-04-25T07:40:32;11.10;97.20
2653;DHT22;1336;48.692;9.144;2023-04-25T07:41:24;11.10;97.20
2653;DHT22;1336;48.692;9.144;2023-04-25T07:42:15;11.10;97.20
2653;DHT22;1336;48.692;9.144;2023-04-25T07:43:06;11.10;97.20
2653;DHT22;1336;48.692;9.144;2023-04-25T07:43:57;11.20;97.20
2653;DHT22;1336;48.692;9.144;2023-04-25T07:44:49;11.20;97.20
2653;DHT22;1336;48.692;9.144;2023-04-25T07:45:42;11.20;97.20
2653;DHT22;1336;48.692;9.144;2023-04-25T07:46:33;11.20;97.20
2653;DHT22;1336;48.692;9.144;2023-04-25T07:47:24;11.20;97.20
2653;DHT22;1336;48.692;9.144;2023-04-25T07:48:17;11.20;97.20
2653;DHT22;1336;48.692;9.144;2023-04-25T07:49:08;11.20;97.20
2653;DHT22;1336;48.692;9.144;2023-04-25T07:50:02;11.20;97.20
2653;DHT22;1336;48.692;9.144;2023-04-25T07:50:53;11.20;97.20
2653;DHT22;1336;48.692;9.144;2023-04-25T07:51:44;11.10;97.20
2653;DHT22;1336;48.692;9.144;2023-04-25T07:52:35;11.20;97.20
2653;DHT22;1336;48.692;9.144;2023-04-25T07:53:27;11.20;97.20
2653;DHT22;1336;48.692;9.144;2023-04-25T07:54:18;11.20;97.20
2653;DHT22;1336;48.692;9.144;2023-04-25T07:55:09;11.20;97.20
2653;DHT22;1336;48.692;9.144;2023-04-25T07:56:00;11.20;97.20
2653;DHT22;1336;48.692;9.144;2023-04-25T07:56:52;11.30;97.20
2653;DHT22;1336;48.692;9.144;2023-04-25T07:57:42;11.30;97.20
2653;DHT22;1336;48.692;9.144;2023-04-25T07:58:34;11.30;97.20
2653;DHT22;1336;48.692;9.144;2023-04-25T07:59:25;11.30;97.20
2653;DHT22;1336;48.692;9.144;2023-04-25T08:00:17;11.30;97.20
2653;DHT22;1336;48.692;9.144;2023-04-25T08:01:08;11.30;97.20
2653;DHT22;1336;48.692;9.144;2023-04-25T08:02:00;11.30;97.20
2653;DHT22;1336;48.692;9.144;2023-04-25T08:02:51;11.30;97.20
2653;DHT22;1336;48.692;9.144;2023-04-25T08:03:42;11.30;97.20
2653;DHT22;1336;48.692;9.144;2023-04-25T08:04:33;11.30;97.20
2653;DHT22;1336;48.692;9.144;2023-04-25T08:05:26;11.30;97.20
2653;DHT22;1336;48.692;9.144;2023-04-25T08:06:17;11.30;97.20
2653;DHT22;1336;48.692;9.144;2023-04-25T08:07:09;11.30;97.20
2653;DHT22;1336;48.692;9.144;2023-04-25T08:08:00;11.30;97.20
2653;DHT22;1336;48.692;9.144;2023-04-25T08:08:52;11.20;97.20
2653;DHT22;1336;48.692;9.144;2023-04-25T08:09:43;11.20;97.20
2653;DHT22;1336;48.692;9.144;2023-04-25T08:10:35;11.20;97.20
2653;DHT22;1336;48.692;9.144;2023-04-25T08:11:25;11.20;97.20
2653;DHT22;1336;48.692;9.144;2023-04-25T08:12:17;11.20;97.20
2653;DHT22;1336;48.692;9.144;2023-04-25T08:13:08;11.20;97.20
2653;DHT22;1336;48.692;9.144;2023-04-25T08:13:59;11.10;97.20
2653;DHT22;1336;48.692;9.144;2023-04-25T08:14:50;11.10;97.20
2653;DHT22;1336;48.692;9.144;2023-04-25T08:15:42;11.10;97.20
2653;DHT22;1336;48.692;9.144;2023-04-25T08:16:33;11.10;97.20
2653;DHT22;1336;48.692;9.144;2023-04-25T08:17:25;11.10;97.20
2653;DHT22;1336;48.692;9.144;2023-04-25T08:18:16;11.00;97.20
2653;DHT22;1336;48.692;9.144;2023-04-25T08:19:07;11.00;97.20
2653;DHT22;1336;48.692;9.144;2023-04-25T08:19:58;11.00;97.20
2653;DHT22;1336;48.692;9.144;2023-04-25T08:20:51;11.00;97.20
2653;DHT22;1336;48.692;9.144;2023-04-25T08:21:42;11.00;97.20
2653;DHT22;1336;48.692;9.144;2023-04-25T08:22:33;11.00;97.20
2653;DHT22;1336;48.692;9.144;2023-04-25T08:23:25;11.00;97.20
2653;DHT22;1336;48.692;9.144;2023-04-25T08:24:17;11.00;97.20
2653;DHT22;1336;48.692;9.144;2023-04-25T08:25:08;11.00;97.20
2653;DHT22;1336;48.692;9.144;2023-04-25T08:25:59;10.90;97.20
2653;DHT22;1336;48.692;9.144;2023-04-25T08:26:51;10.90;97.20
2653;DHT22;1336;48.692;9.144;2023-04-25T08:27:43;10.90;97.20
2653;DHT22;1336;48.692;9.144;2023-04-25T08:28:34;10.90;97.20
2653;DHT22;1336;48.692;9.144;2023-04-25T08:29:25;10.90;97.20
2653;DHT22;1336;48.692;9.144;2023-04-25T08:30:18;10.80;97.20
2653;DHT22;1336;48.692;9.144;2023-04-25T08:31:09;10.80;97.20
2653;DHT22;1336;48.692;9.144;2023-04-25T08:32:01;10.80;97.20
2653;DHT22;1336;48.692;9.144;2023-04-25T08:32:52;10.80;97.20
2653;DHT22;1336;48.692;9.144;2023-04-25T08:33:43;10.80;97.20
2653;DHT22;1336;48.692;9.144;2023-04-25T08:34:35;10.80;97.20
2653;DHT22;1336;48.692;9.144;2023-04-25T08:35:27;10.80;97.20
2653;DHT22;1336;48.692;9.144;2023-04-25T08:36:19;10.80;97.20
2653;DHT22;1336;48.692;9.144;2023-04-25T08:37:11;10.90;97.20
2653;DHT22;1336;48.692;9.144;2023-04-25T08:38:01;10.90;97.20
2653;DHT22;1336;48.692;9.144;2023-04-25T08:38:53;10.90;97.20
2653;DHT22;1336;48.692;9.144;2023-04-25T08:39:44;10.90;97.20
2653;DHT22;1336;48.692;9.144;2023-04-25T08:40:38;10.90;97.20
2653;DHT22;1336;48.692;9.144;2023-04-25T08:41:30;10.90;97.20
2653;DHT22;1336;48.692;9.144;2023-04-25T08:42:23;10.90;97.20
2653;DHT22;1336;48.692;9.144;2023-04-25T08:43:15;10.90;97.20
2653;DHT22;1336;48.692;9.144;2023-04-25T08:44:10;10.90;97.20
2653;DHT22;1336;48.692;9.144;2023-04-25T08:45:02;10.80;97.20
2653;DHT22;1336;48.692;9.144;2023-04-25T08:45:59;10.80;97.20
2653;DHT22;1336;48.692;9.144;2023-04-25T08:46:51;10.80;97.20
2653;DHT22;1336;48.692;9.144;2023-04-25T08:47:45;10.80;97.20
2653;DHT22;1336;48.692;9.144;2023-04-25T08:48:36;10.80;97.20
2653;DHT22;1336;48.692;9.144;2023-04-25T08:49:28;10.80;97.20
2653;DHT22;1336;48.692;9.144;2023-04-25T08:50:21;10.80;97.20
2653;DHT22;1336;48.692;9.144;2023-04-25T08:51:19;10.80;97.20
2653;DHT22;1336;48.692;9.144;2023-04-25T08:52:13;10.80;97.20
2653;DHT22;1336;48.692;9.144;2023-04-25T08:53:09;10.80;97.20
2653;DHT22;1336;48.692;9.144;2023-04-25T08:54:08;10.70;97.20
2653;DHT22;1336;48.692;9.144;2023-04-25T08:55:01;10.70;97.20
2653;DHT22;1336;48.692;9.144;2023-04-25T08:55:53;10.70;97.20
2653;DHT22;1336;48.692;9.144;2023-04-25T08:56:47;10.70;97.20
2653;DHT22;1336;48.692;9.144;2023-04-25T08:57:39;10.70;97.20
2653;DHT22;1336;48.692;9.144;2023-04-25T08:58:33;10.70;97.20
2653;DHT22;1336;48.692;9.144;2023-04-25T08:59:24;10.70;97.20
2653;DHT22;1336;48.692;9.144;2023-04-25T09:00:16;10.70;97.20
2653;DHT22;1336;48.692;9.144;2023-04-25T09:01:08;10.70;97.20
2653;DHT22;1336;48.692;9.144;2023-04-25T09:02:00;10.70;97.20
2653;DHT22;1336;48.692;9.144;2023-04-25T09:02:52;10.70;97.20
2653;DHT22;1336;48.692;9.144;2023-04-25T09:03:44;10.70;97.20
2653;DHT22;1336;48.692;9.144;2023-04-25T09:04:37;10.70;97.20
2653;DHT22;1336;48.692;9.144;2023-04-25T09:05:28;10.70;97.20
2653;DHT22;1336;48.692;9.144;2023-04-25T09:06:21;10.60;97.20
2653;DHT22;1336;48.692;9.144;2023-04-25T09:07:14;10.60;97.20
2653;DHT22;1336;48.692;9.144;2023-04-25T09:08:09;10.50;97.20
2653;DHT22;1336;48.692;9.144;2023-04-25T09:09:02;10.50;97.20
2653;DHT22;1336;48.692;9.144;2023-04-25T09:09:55;10.50;97.20
2653;DHT22;1336;48.692;9.144;2023-04-25T09:10:45;10.50;97.20
2653;DHT22;1336;48.692;9.144;2023-04-25T09:11:38;10.50;97.20
2653;DHT22;1336;48.692;9.144;2023-04-25T09:12:29;10.50;97.20
2653;DHT22;1336;48.692;9.144;2023-04-25T09:13:25;10.50;97.20
2653;DHT22;1336;48.692;9.144;2023-04-25T09:14:18;10.50;97.20
2653;DHT22;1336;48.692;9.144;2023-04-25T09:15:12;10.40;97.20
2653;DHT22;1336;48.692;9.144;2023-04-25T09:16:03;10.40;97.20
2653;DHT22;1336;48.692;9.144;2023-04-25T09:16:59;10.40;97.20
2653;DHT22;1336;48.692;9.144;2023-04-25T09:17:55;10.40;97.20
2653;DHT22;1336;48.692;9.144;2023-04-25T09:18:47;10.40;97.20
2653;DHT22;1336;48.692;9.144;2023-04-25T09:19:40;10.40;97.20
2653;DHT22;1336;48.692;9.144;2023-04-25T09:20:30;10.40;97.20
2653;DHT22;1336;48.692;9.144;2023-04-25T09:21:22;10.40;97.20
2653;DHT22;1336;48.692;9.144;2023-04-25T09:22:17;10.40;97.20
2653;DHT22;1336;48.692;9.144;2023-04-25T09:23:12;10.40;97.20
2653;DHT22;1336;48.692;9.144;2023-04-25T09:24:03;10.40;97.20
2653;DHT22;1336;48.692;9.144;2023-04-25T09:24:55;10.40;97.20
2653;DHT22;1336;48.692;9.144;2023-04-25T09:25:48;10.40;97.20
2653;DHT22;1336;48.692;9.144;2023-04-25T09:26:39;10.40;97.20
2653;DHT22;1336;48.692;9.144;2023-04-25T09:27:31;10.40;97.20
2653;DHT22;1336;48.692;9.144;2023-04-25T09:28:25;10.40;97.20
2653;DHT22;1336;48.692;9.144;2023-04-25T09:29:17;10.50;97.20
2653;DHT22;1336;48.692;9.144;2023-04-25T09:30:09;10.50;97.20
2653;DHT22;1336;48.692;9.144;2023-04-25T09:31:00;10.60;97.20
2653;DHT22;1336;48.692;9.144;2023-04-25T09:31:51;10.60;97.20
2653;DHT22;1336;48.692;9.144;2023-04-25T09:32:43;10.60;97.20
2653;DHT22;1336;48.692;9.144;2023-04-25T09:33:35;10.70;97.20
2653;DHT22;1336;48.692;9.144;2023-04-25T09:34:26;10.70;97.20
2653;DHT22;1336;48.692;9.144;2023-04-25T09:35:24;10.70;97.20
2653;DHT22;1336;48.692;9.144;2023-04-25T09:36:16;10.70;97.20
2653;DHT22;1336;48.692;9.144;2023-04-25T09:37:08;10.70;97.20
2653;DHT22;1336;48.692;9.144;2023-04-25T09:38:01;10.70;97.20
2653;DHT22;1336;48.692;9.144;2023-04-25T09:38:53;10.70;97.20
2653;DHT22;1336;48.692;9.144;2023-04-25T09:39:45;10.60;97.20
2653;DHT22;1336;48.692;9.144;2023-04-25T09:40:39;10.60;97.20
2653;DHT22;1336;48.692;9.144;2023-04-25T09:41:31;10.60;97.20
2653;DHT22;1336;48.692;9.144;2023-04-25T09:42:23;10.60;97.20
2653;DHT22;1336;48.692;9.144;2023-04-25T09:43:19;10.60;97.20
2653;DHT22;1336;48.692;9.144;2023-04-25T09:44:12;10.60;97.20
2653;DHT22;1336;48.692;9.144;2023-04-25T09:45:04;10.50;97.20
2653;DHT22;1336;48.692;9.144;2023-04-25T09:45:56;10.50;97.20
2653;DHT22;1336;48.692;9.144;2023-04-25T09:46:49;10.50;97.20
2653;DHT22;1336;48.692;9.144;2023-04-25T09:47:43;10.40;97.20
2653;DHT22;1336;48.692;9.144;2023-04-25T09:48:36;10.40;97.20
2653;DHT22;1336;48.692;9.144;2023-04-25T09:49:27;10.30;97.20
2653;DHT22;1336;48.692;9.144;2023-04-25T09:50:19;10.30;97.20
2653;DHT22;1336;48.692;9.144;2023-04-25T09:51:12;10.30;97.20
2653;DHT22;1336;48.692;9.144;2023-04-25T09:52:04;10.20;97.20
2653;DHT22;1336;48.692;9.144;2023-04-25T09:53:04;10.30;97.20
2653;DHT22;1336;48.692;9.144;2023-04-25T09:53:56;10.20;97.20
2653;DHT22;1336;48.692;9.144;2023-04-25T09:54:48;10.30;97.20
2653;DHT22;1336;48.692;9.144;2023-04-25T09:55:40;10.20;97.20
2653;DHT22;1336;48.692;9.144;2023-04-25T09:56:36;10.20;97.20
2653;DHT22;1336;48.692;9.144;2023-04-25T09:57:27;10.20;97.20
2653;DHT22;1336;48.692;9.144;2023-04-25T09:58:19;10.10;97.20
2653;DHT22;1336;48.692;9.144;2023-04-25T09:59:11;10.10;97.20
2653;DHT22;1336;48.692;9.144;2023-04-25T10:00:03;10.20;97.20
2653;DHT22;1336;48.692;9.144;2023-04-25T10:01:02;10.20;97.20
2653;DHT22;1336;48.692;9.144;2023-04-25T10:01:54;10.20;97.20
2653;DHT22;1336;48.692;9.144;2023-04-25T10:02:47;10.20;97.20
2653;DHT22;1336;48.692;9.144;2023-04-25T10:03:39;10.20;97.20
2653;DHT22;1336;48.692;9.144;2023-04-25T10:04:34;10.10;97.20
2653;DHT22;1336;48.692;9.144;2023-04-25T10:05:26;10.10;97.20
2653;DHT22;1336;48.692;9.144;2023-04-25T10:06:19;10.10;97.20
2653;DHT22;1336;48.692;9.144;2023-04-25T10:07:12;10.10;97.20
2653;DHT22;1336;48.692;9.144;2023-04-25T10:08:06;10.10;97.20
2653;DHT22;1336;48.692;9.144;2023-04-25T10:08:59;10.10;97.20
2653;DHT22;1336;48.692;9.144;2023-04-25T10:09:53;10.10;97.20
2653;DHT22;1336;48.692;9.144;2023-04-25T10:10:46;10.10;97.20
2653;DHT22;1336;48.692;9.144;2023-04-25T10:11:39;10.10;97.20
2653;DHT22;1336;48.692;9.144;2023-04-25T10:12:32;10.00;97.20
2653;DHT22;1336;48.692;9.144;2023-04-25T10:13:25;10.00;97.20
2653;DHT22;1336;48.692;9.144;2023-04-25T10:14:17;10.00;97.20
2653;DHT22;1336;48.692;9.144;2023-04-25T10:15:10;10.00;97.20
2653;DHT22;1336;48.692;9.144;2023-04-25T10:16:03;10.00;97.20
2653;DHT22;1336;48.692;9.144;2023-04-25T10:16:55;10.00;97.20
2653;DHT22;1336;48.692;9.144;2023-04-25T10:17:48;10.00;97.20
2653;DHT22;1336;48.692;9.144;2023-04-25T10:18:40;10.00;97.20
2653;DHT22;1336;48.692;9.144;2023-04-25T10:19:32;10.00;97.20
2653;DHT22;1336;48.692;9.144;2023-04-25T10:20:24;10.00;97.20
2653;DHT22;1336;48.692;9.144;2023-04-25T10:21:16;10.00;97.20
2653;DHT22;1336;48.692;9.144;2023-04-25T10:22:13;10.10;97.20
2653;DHT22;1336;48.692;9.144;2023-04-25T10:23:13;10.10;97.20
2653;DHT22;1336;48.692;9.144;2023-04-25T10:24:06;10.10;97.20
2653;DHT22;1336;48.692;9.144;2023-04-25T10:24:58;10.20;97.20
2653;DHT22;1336;48.692;9.144;2023-04-25T10:25:49;10.20;97.20
2653;DHT22;1336;48.692;9.144;2023-04-25T10:26:42;10.30;97.20
2653;DHT22;1336;48.692;9.144;2023-04-25T10:27:34;10.40;97.20
2653;DHT22;1336;48.692;9.144;2023-04-25T10:28:26;10.40;97.20
2653;DHT22;1336;48.692;9.144;2023-04-25T10:29:22;10.40;97.20
2653;DHT22;1336;48.692;9.144;2023-04-25T10:30:15;10.50;97.20
2653;DHT22;1336;48.692;9.144;2023-04-25T10:31:08;10.50;97.20
2653;DHT22;1336;48.692;9.144;2023-04-25T10:31:59;10.60;97.20
2653;DHT22;1336;48.692;9.144;2023-04-25T10:32:50;10.70;97.20
2653;DHT22;1336;48.692;9.144;2023-04-25T10:33:45;10.70;97.20
2653;DHT22;1336;48.692;9.144;2023-04-25T10:34:41;10.70;97.20
2653;DHT22;1336;48.692;9.144;2023-04-25T10:35:33;10.80;97.20
2653;DHT22;1336;48.692;9.144;2023-04-25T10:36:25;10.80;97.20
2653;DHT22;1336;48.692;9.144;2023-04-25T10:37:19;10.80;97.20
2653;DHT22;1336;48.692;9.144;2023-04-25T10:38:13;10.80;97.20
2653;DHT22;1336;48.692;9.144;2023-04-25T10:39:06;10.90;97.20